Relevés horaires Chievres (Belgique)


Relevés horaires à Chievres - Mercredi 29 Avr. 2026
Heure UTC1 Température [°C] Vent [km/h] Hum. [%] Pres.4 [hPa] Visi. [Km] Nébu. [octa] Préc.5 [mm] Cond.
2m. Res. Ros. Dir.2 Vit. Moy. Raf.3
23:00 11.3 10.7 0.8 E 7.4 -- 14.8 48 1023.7(1.1/3h) >70 -- -- --
22:00 13.2 12.3 0.3 ENE 11.1 -- 16.7 41 1023.3(1.4/3h) >70 -- -- --
21:00 13.6 13 0.4 ENE 9.3 -- 20.4 40 1023(1.6/3h) >70 -- -- --
20:00 13.8 13.3 0.6 ENE 9.3 -- 14.8 40 1022.5(1.1/3h) >70 -- -- --
19:00 15.3 15.1 -0.3 ENE 9.3 -- 20.4 34 1021.8(0.5/3h) >70 -- -- --
18:00 17.9 17.8 -1.1 ENE 13.0 -- 25.9 27 1021.2(-0.1/3h) >70 -- -- --
17:00 18.9 18.9 -0.5 E 13.0 -- 22.2 27 1021.2(-0.4/3h) >70 -- -- --
16:00 19.4 19.4 0.5 ENE 16.7 -- 24.1 28 1021.2(-0.5/3h) >70 -- -- --
15:00 19.3 19.3 1.5 ENE 16.7 -- 25.9 30 1021.3(-0.6/3h) >70 -- -- --
14:00 19.2 19.2 2.7 ENE 14.8 -- 22.2 33 1021.6(-0.5/3h) >70 -- -- --
13:00 19.0 19 3.5 ENE 14.8 -- 25.9 36 1021.7(-0.3/3h) >70 -- -- --
12:00 18.7 18.5 3.6 ENE 16.7 -- 24.1 37 1022(-0.2/3h) >70 -- -- --
11:00 17.4 17.1 2.5 ENE 14.8 -- 22.2 37 1022.2(-0.1/3h) >70 -- -- --
10:00 16.1 15.5 3.1 ENE 14.8 -- 22.2 42 1022.2(0.0/3h) >70 -- -- --
09:00 14.2 13.3 1.5 ENE 13.0 -- 20.4 42 1022.3(0.2/3h) >70 -- -- --
08:00 12.5 11.2 0.1 ENE 13.0 -- 18.5 42 1022.5(0.6/3h) >70 -- -- --
07:00 11.0 9.4 0.1 ENE 13.0 -- 18.5 47 1022.2(0.6/3h) >70 -- -- --
06:00 9.5 8.2 0.1 ENE 9.3 -- 16.7 52 1022.2(1.0/3h) >70 -- -- --
05:00 8.7 7.2 -0.7 NE 9.3 -- 16.7 52 1021.8(0.9/3h) >70 -- -- --
04:00 9.0 7.2 -0.4 ENE 11.1 -- 14.8 52 1021.6(0.6/3h) >70 -- -- --
03:00 9.7 8.1 0.1 ENE 11.1 -- 14.8 51 1021.2(-0.1/3h) >70 -- -- --
02:00 10.1 8.9 1.3 ENE 9.3 -- 14.8 54 1021(0.3/3h) >70 -- -- --
01:00 10.5 9.3 1.6 ENE 9.3 -- 13.0 54 1020.8(0.4/3h) >70 -- -- --
00:00 10.5 10.2 2.0 ENE 5.6 -- 18.5 56 1021.1(0.9/3h) >70 -- -- --

1 Coordinated Universal Time. Actuellement il est 08:00 locale et 06:00 UTC.

2 Le vent souffle depuis la direction indiquée vers la direction oposée.

3 Les rafales max. sont disponible 40 min après l'heure du relevé.

4 Pour les stations d'altitude (plus de 600m) le géopotentiel du niveau le plus proche de la pression obligatoire est indiqué.

5 Les stations disposant d'un diffuseur peuvent indiquer "trace". Cela signifie que des précipitations ont touchés le sol mais que la quantité est inférieure à 0.1 mm.

Récapitulatif de la journée
Température [°C] Vent [km/h] Ensoleillement4 [h] Precipitations totale5 [mm] Pression [Hpa]
Min1 Max.2 Moy.3 Max. Min Max.
8.5 19.6 0 25.9 0 h 0 min 0 1020.8 1023.7

1 Température minimale relevée entre 18:00 UTC la veille et 18:00 UTC le jour donné.

2 Température maximale relevée entre 06:00 UTC le jour donné et 06:00 UTC le lendemain.

3 Vent moyen de la journée basé sur les relevés horaires.

4 Ensoleillement en heures relevé entre 06:00 UTC la veille et 06:00 UTC le jour donné.

5 Précipitations totales tombées entre 06:00 UTC la jour donné et 06:00 UTC le lendemain.

Graphiques horaires